sensor_id;sensor_type;location;lat;lon;timestamp;temperature;humidity
37204;DHT22;23098;48.054;10.636;2023-04-15T00:01:44;3.90;99.90
37204;DHT22;23098;48.054;10.636;2023-04-15T00:04:10;3.90;99.90
37204;DHT22;23098;48.054;10.636;2023-04-15T00:06:36;3.80;99.90
37204;DHT22;23098;48.054;10.636;2023-04-15T00:09:05;3.80;99.90
37204;DHT22;23098;48.054;10.636;2023-04-15T00:11:31;3.80;99.90
37204;DHT22;23098;48.054;10.636;2023-04-15T00:13:56;3.80;99.90
37204;DHT22;23098;48.054;10.636;2023-04-15T00:16:22;3.80;99.90
37204;DHT22;23098;48.054;10.636;2023-04-15T00:18:49;3.70;99.90
37204;DHT22;23098;48.054;10.636;2023-04-15T00:21:15;3.80;99.90
37204;DHT22;23098;48.054;10.636;2023-04-15T00:23:40;3.70;99.90
37204;DHT22;23098;48.054;10.636;2023-04-15T00:26:06;3.70;99.90
37204;DHT22;23098;48.054;10.636;2023-04-15T00:28:34;3.70;99.90
37204;DHT22;23098;48.054;10.636;2023-04-15T00:31:01;3.70;99.90
37204;DHT22;23098;48.054;10.636;2023-04-15T00:33:27;3.70;99.90
37204;DHT22;23098;48.054;10.636;2023-04-15T00:35:54;3.70;99.90
37204;DHT22;23098;48.054;10.636;2023-04-15T00:38:19;3.70;99.90
37204;DHT22;23098;48.054;10.636;2023-04-15T00:40:45;3.80;99.90
37204;DHT22;23098;48.054;10.636;2023-04-15T00:43:10;3.80;99.90
37204;DHT22;23098;48.054;10.636;2023-04-15T00:45:37;3.70;99.90
37204;DHT22;23098;48.054;10.636;2023-04-15T00:48:06;3.60;99.90
37204;DHT22;23098;48.054;10.636;2023-04-15T00:50:35;3.70;99.90
37204;DHT22;23098;48.054;10.636;2023-04-15T00:53:01;3.60;99.90
37204;DHT22;23098;48.054;10.636;2023-04-15T00:55:26;3.60;99.90
37204;DHT22;23098;48.054;10.636;2023-04-15T00:57:53;3.60;99.90
37204;DHT22;23098;48.054;10.636;2023-04-15T01:00:19;3.60;99.90
37204;DHT22;23098;48.054;10.636;2023-04-15T01:02:45;3.60;99.90
37204;DHT22;23098;48.054;10.636;2023-04-15T01:05:11;3.70;99.90
37204;DHT22;23098;48.054;10.636;2023-04-15T01:07:38;3.70;99.90
37204;DHT22;23098;48.054;10.636;2023-04-15T01:10:04;3.60;99.90
37204;DHT22;23098;48.054;10.636;2023-04-15T01:12:33;3.60;99.90
37204;DHT22;23098;48.054;10.636;2023-04-15T01:14:59;3.60;99.90
37204;DHT22;23098;48.054;10.636;2023-04-15T01:17:25;3.60;99.90
37204;DHT22;23098;48.054;10.636;2023-04-15T01:19:55;3.60;99.90
37204;DHT22;23098;48.054;10.636;2023-04-15T01:22:21;3.60;99.90
37204;DHT22;23098;48.054;10.636;2023-04-15T01:25:02;3.60;99.90
37204;DHT22;23098;48.054;10.636;2023-04-15T01:27:30;3.60;99.90
37204;DHT22;23098;48.054;10.636;2023-04-15T01:29:56;3.60;99.90
37204;DHT22;23098;48.054;10.636;2023-04-15T01:32:22;3.60;99.90
37204;DHT22;23098;48.054;10.636;2023-04-15T01:34:48;3.50;99.90
37204;DHT22;23098;48.054;10.636;2023-04-15T01:37:14;3.50;99.90
37204;DHT22;23098;48.054;10.636;2023-04-15T01:39:39;3.50;99.90
37204;DHT22;23098;48.054;10.636;2023-04-15T01:42:05;3.50;99.90
37204;DHT22;23098;48.054;10.636;2023-04-15T01:44:31;3.50;99.90
37204;DHT22;23098;48.054;10.636;2023-04-15T01:46:56;3.40;99.90
37204;DHT22;23098;48.054;10.636;2023-04-15T01:49:22;3.40;99.90
37204;DHT22;23098;48.054;10.636;2023-04-15T01:51:48;3.50;99.90
37204;DHT22;23098;48.054;10.636;2023-04-15T01:54:13;3.40;99.90
37204;DHT22;23098;48.054;10.636;2023-04-15T01:56:40;3.40;99.90
37204;DHT22;23098;48.054;10.636;2023-04-15T01:59:06;3.40;99.90
37204;DHT22;23098;48.054;10.636;2023-04-15T02:01:32;3.40;99.90
37204;DHT22;23098;48.054;10.636;2023-04-15T02:03:58;3.30;99.90
37204;DHT22;23098;48.054;10.636;2023-04-15T02:06:24;3.30;99.90
37204;DHT22;23098;48.054;10.636;2023-04-15T02:08:49;3.30;99.90
37204;DHT22;23098;48.054;10.636;2023-04-15T02:11:15;3.20;99.90
37204;DHT22;23098;48.054;10.636;2023-04-15T02:13:40;3.20;99.90
37204;DHT22;23098;48.054;10.636;2023-04-15T02:16:17;3.20;99.90
37204;DHT22;23098;48.054;10.636;2023-04-15T02:18:44;3.20;99.90
37204;DHT22;23098;48.054;10.636;2023-04-15T02:21:11;3.10;99.90
37204;DHT22;23098;48.054;10.636;2023-04-15T02:23:37;3.10;99.90
37204;DHT22;23098;48.054;10.636;2023-04-15T02:26:02;3.10;99.90
37204;DHT22;23098;48.054;10.636;2023-04-15T02:28:28;3.00;99.90
37204;DHT22;23098;48.054;10.636;2023-04-15T02:30:53;3.00;99.90
37204;DHT22;23098;48.054;10.636;2023-04-15T02:33:21;2.90;99.90
37204;DHT22;23098;48.054;10.636;2023-04-15T02:35:47;2.90;99.90
37204;DHT22;23098;48.054;10.636;2023-04-15T02:38:13;2.90;99.90
37204;DHT22;23098;48.054;10.636;2023-04-15T02:40:41;2.90;99.90
37204;DHT22;23098;48.054;10.636;2023-04-15T02:43:07;2.80;99.90
37204;DHT22;23098;48.054;10.636;2023-04-15T02:45:33;2.80;99.90
37204;DHT22;23098;48.054;10.636;2023-04-15T02:47:58;2.80;99.90
37204;DHT22;23098;48.054;10.636;2023-04-15T02:50:27;2.80;99.90
37204;DHT22;23098;48.054;10.636;2023-04-15T02:52:55;2.80;99.90
37204;DHT22;23098;48.054;10.636;2023-04-15T02:55:20;2.80;99.90
37204;DHT22;23098;48.054;10.636;2023-04-15T02:57:46;2.90;99.90
37204;DHT22;23098;48.054;10.636;2023-04-15T03:00:12;2.90;99.90
37204;DHT22;23098;48.054;10.636;2023-04-15T03:02:38;2.90;99.90
37204;DHT22;23098;48.054;10.636;2023-04-15T03:05:04;2.90;99.90
37204;DHT22;23098;48.054;10.636;2023-04-15T03:07:30;2.90;99.90
37204;DHT22;23098;48.054;10.636;2023-04-15T03:09:56;2.90;99.90
37204;DHT22;23098;48.054;10.636;2023-04-15T03:12:22;2.90;99.90
37204;DHT22;23098;48.054;10.636;2023-04-15T03:14:48;2.90;99.90
37204;DHT22;23098;48.054;10.636;2023-04-15T03:17:14;2.90;99.90
37204;DHT22;23098;48.054;10.636;2023-04-15T03:19:41;2.90;99.90
37204;DHT22;23098;48.054;10.636;2023-04-15T03:22:06;2.90;99.90
37204;DHT22;23098;48.054;10.636;2023-04-15T03:24:32;2.90;99.90
37204;DHT22;23098;48.054;10.636;2023-04-15T03:26:57;2.80;99.90
37204;DHT22;23098;48.054;10.636;2023-04-15T03:29:24;2.80;99.90
37204;DHT22;23098;48.054;10.636;2023-04-15T03:31:50;2.70;99.90
37204;DHT22;23098;48.054;10.636;2023-04-15T03:34:16;2.70;99.90
37204;DHT22;23098;48.054;10.636;2023-04-15T03:36:41;2.70;99.90
37204;DHT22;23098;48.054;10.636;2023-04-15T03:39:07;2.70;99.90
37204;DHT22;23098;48.054;10.636;2023-04-15T03:41:33;2.70;99.90
37204;DHT22;23098;48.054;10.636;2023-04-15T03:43:58;2.60;99.90
37204;DHT22;23098;48.054;10.636;2023-04-15T03:46:28;2.60;99.90
37204;DHT22;23098;48.054;10.636;2023-04-15T03:48:53;2.60;99.90
37204;DHT22;23098;48.054;10.636;2023-04-15T03:51:19;2.50;99.90
37204;DHT22;23098;48.054;10.636;2023-04-15T03:53:44;2.50;99.90
37204;DHT22;23098;48.054;10.636;2023-04-15T03:56:10;2.50;99.90
37204;DHT22;23098;48.054;10.636;2023-04-15T03:58:35;2.50;99.90
37204;DHT22;23098;48.054;10.636;2023-04-15T04:01:01;2.50;99.90
37204;DHT22;23098;48.054;10.636;2023-04-15T04:03:26;2.40;99.90
37204;DHT22;23098;48.054;10.636;2023-04-15T04:05:52;2.40;99.90
37204;DHT22;23098;48.054;10.636;2023-04-15T04:08:17;2.30;99.90
37204;DHT22;23098;48.054;10.636;2023-04-15T04:10:46;2.20;99.90
37204;DHT22;23098;48.054;10.636;2023-04-15T04:13:11;2.20;99.90
37204;DHT22;23098;48.054;10.636;2023-04-15T04:15:37;2.10;99.90
37204;DHT22;23098;48.054;10.636;2023-04-15T04:18:02;2.10;99.90
37204;DHT22;23098;48.054;10.636;2023-04-15T04:20:28;2.00;99.90
37204;DHT22;23098;48.054;10.636;2023-04-15T04:22:54;2.00;99.90
37204;DHT22;23098;48.054;10.636;2023-04-15T04:25:20;2.00;99.90
37204;DHT22;23098;48.054;10.636;2023-04-15T04:27:45;2.00;99.90
37204;DHT22;23098;48.054;10.636;2023-04-15T04:30:11;2.00;99.90
37204;DHT22;23098;48.054;10.636;2023-04-15T04:32:37;2.00;99.90
37204;DHT22;23098;48.054;10.636;2023-04-15T04:35:03;2.00;99.90
37204;DHT22;23098;48.054;10.636;2023-04-15T04:37:29;2.00;99.90
37204;DHT22;23098;48.054;10.636;2023-04-15T04:39:55;2.10;99.90
37204;DHT22;23098;48.054;10.636;2023-04-15T04:42:21;2.10;99.90
37204;DHT22;23098;48.054;10.636;2023-04-15T04:44:46;2.20;99.90
37204;DHT22;23098;48.054;10.636;2023-04-15T04:47:12;2.20;99.90
37204;DHT22;23098;48.054;10.636;2023-04-15T04:49:38;2.30;99.90
37204;DHT22;23098;48.054;10.636;2023-04-15T04:52:04;2.40;99.90
37204;DHT22;23098;48.054;10.636;2023-04-15T04:54:30;2.50;99.90
37204;DHT22;23098;48.054;10.636;2023-04-15T04:56:56;2.50;99.90
37204;DHT22;23098;48.054;10.636;2023-04-15T05:01:51;2.50;99.90
37204;DHT22;23098;48.054;10.636;2023-04-15T05:04:17;2.60;99.90
37204;DHT22;23098;48.054;10.636;2023-04-15T05:06:43;2.70;99.90
37204;DHT22;23098;48.054;10.636;2023-04-15T05:09:09;2.70;99.90
37204;DHT22;23098;48.054;10.636;2023-04-15T05:11:35;2.70;99.90
37204;DHT22;23098;48.054;10.636;2023-04-15T05:14:02;2.70;99.90
37204;DHT22;23098;48.054;10.636;2023-04-15T05:16:28;2.70;99.90
37204;DHT22;23098;48.054;10.636;2023-04-15T05:18:59;2.80;99.90
37204;DHT22;23098;48.054;10.636;2023-04-15T05:21:26;2.80;99.90
37204;DHT22;23098;48.054;10.636;2023-04-15T05:23:52;2.90;99.90
37204;DHT22;23098;48.054;10.636;2023-04-15T05:26:17;3.00;99.90
37204;DHT22;23098;48.054;10.636;2023-04-15T05:28:44;3.30;99.90
37204;DHT22;23098;48.054;10.636;2023-04-15T05:31:10;3.50;99.90
37204;DHT22;23098;48.054;10.636;2023-04-15T05:33:36;3.70;99.90
37204;DHT22;23098;48.054;10.636;2023-04-15T05:36:01;3.80;99.90
37204;DHT22;23098;48.054;10.636;2023-04-15T05:38:27;3.80;99.90
37204;DHT22;23098;48.054;10.636;2023-04-15T05:40:53;3.90;99.90
37204;DHT22;23098;48.054;10.636;2023-04-15T05:54:24;4.00;99.90
37204;DHT22;23098;48.054;10.636;2023-04-15T05:56:53;4.00;99.90
37204;DHT22;23098;48.054;10.636;2023-04-15T05:59:21;4.00;99.90
37204;DHT22;23098;48.054;10.636;2023-04-15T06:01:47;4.10;99.90
37204;DHT22;23098;48.054;10.636;2023-04-15T06:04:12;4.20;99.90
37204;DHT22;23098;48.054;10.636;2023-04-15T06:06:38;4.20;99.90
37204;DHT22;23098;48.054;10.636;2023-04-15T06:09:04;4.20;99.90
37204;DHT22;23098;48.054;10.636;2023-04-15T06:11:30;4.30;99.90
37204;DHT22;23098;48.054;10.636;2023-04-15T06:13:56;4.40;99.90
37204;DHT22;23098;48.054;10.636;2023-04-15T06:16:21;4.60;99.90
37204;DHT22;23098;48.054;10.636;2023-04-15T06:18:47;5.00;99.90
37204;DHT22;23098;48.054;10.636;2023-04-15T06:21:14;5.30;99.90
37204;DHT22;23098;48.054;10.636;2023-04-15T06:23:40;5.70;99.90
37204;DHT22;23098;48.054;10.636;2023-04-15T06:26:06;6.10;99.90
37204;DHT22;23098;48.054;10.636;2023-04-15T06:28:33;6.70;99.90
37204;DHT22;23098;48.054;10.636;2023-04-15T06:30:58;7.00;99.90
37204;DHT22;23098;48.054;10.636;2023-04-15T06:33:24;7.00;99.90
37204;DHT22;23098;48.054;10.636;2023-04-15T06:35:51;7.00;99.90
37204;DHT22;23098;48.054;10.636;2023-04-15T06:38:16;6.90;99.90
37204;DHT22;23098;48.054;10.636;2023-04-15T06:40:42;6.90;99.90
37204;DHT22;23098;48.054;10.636;2023-04-15T06:43:08;6.70;99.90
37204;DHT22;23098;48.054;10.636;2023-04-15T06:45:33;6.70;99.90
37204;DHT22;23098;48.054;10.636;2023-04-15T06:47:59;6.40;99.90
37204;DHT22;23098;48.054;10.636;2023-04-15T06:50:25;6.30;99.90
37204;DHT22;23098;48.054;10.636;2023-04-15T06:52:52;6.40;99.90
37204;DHT22;23098;48.054;10.636;2023-04-15T06:55:18;6.40;99.90
37204;DHT22;23098;48.054;10.636;2023-04-15T06:57:45;6.50;99.90
37204;DHT22;23098;48.054;10.636;2023-04-15T07:00:11;6.70;99.90
37204;DHT22;23098;48.054;10.636;2023-04-15T07:02:37;7.00;99.90
37204;DHT22;23098;48.054;10.636;2023-04-15T07:05:04;7.30;99.90
37204;DHT22;23098;48.054;10.636;2023-04-15T07:07:30;7.60;99.90
37204;DHT22;23098;48.054;10.636;2023-04-15T07:09:55;7.60;99.90
37204;DHT22;23098;48.054;10.636;2023-04-15T07:12:21;7.60;99.90
37204;DHT22;23098;48.054;10.636;2023-04-15T07:14:47;7.70;99.90
37204;DHT22;23098;48.054;10.636;2023-04-15T07:17:13;7.90;99.90
37204;DHT22;23098;48.054;10.636;2023-04-15T07:19:39;7.90;99.90
37204;DHT22;23098;48.054;10.636;2023-04-15T07:22:05;7.90;99.90
37204;DHT22;23098;48.054;10.636;2023-04-15T07:24:30;7.80;99.90
37204;DHT22;23098;48.054;10.636;2023-04-15T07:26:56;7.80;99.90
37204;DHT22;23098;48.054;10.636;2023-04-15T07:29:24;7.80;99.90
37204;DHT22;23098;48.054;10.636;2023-04-15T07:31:51;7.80;99.90
37204;DHT22;23098;48.054;10.636;2023-04-15T07:34:18;8.00;99.90
37204;DHT22;23098;48.054;10.636;2023-04-15T07:36:43;8.10;99.90
37204;DHT22;23098;48.054;10.636;2023-04-15T07:39:10;8.10;99.90
37204;DHT22;23098;48.054;10.636;2023-04-15T07:41:36;8.10;99.90
37204;DHT22;23098;48.054;10.636;2023-04-15T07:44:02;8.00;99.90
37204;DHT22;23098;48.054;10.636;2023-04-15T07:46:28;7.90;99.90
37204;DHT22;23098;48.054;10.636;2023-04-15T07:48:54;7.80;99.90
37204;DHT22;23098;48.054;10.636;2023-04-15T07:51:21;7.70;99.90
37204;DHT22;23098;48.054;10.636;2023-04-15T07:53:47;7.80;99.90
37204;DHT22;23098;48.054;10.636;2023-04-15T07:56:13;7.80;99.90
37204;DHT22;23098;48.054;10.636;2023-04-15T07:58:39;8.00;99.90
37204;DHT22;23098;48.054;10.636;2023-04-15T08:01:04;8.20;99.90
37204;DHT22;23098;48.054;10.636;2023-04-15T08:03:32;8.40;99.90
37204;DHT22;23098;48.054;10.636;2023-04-15T08:05:57;8.60;99.90
37204;DHT22;23098;48.054;10.636;2023-04-15T08:08:23;8.60;99.90
37204;DHT22;23098;48.054;10.636;2023-04-15T08:10:50;8.90;99.90
37204;DHT22;23098;48.054;10.636;2023-04-15T08:13:17;9.20;99.90
37204;DHT22;23098;48.054;10.636;2023-04-15T08:15:42;9.40;99.80
37204;DHT22;23098;48.054;10.636;2023-04-15T08:18:08;9.60;99.90
37204;DHT22;23098;48.054;10.636;2023-04-15T08:20:34;9.80;98.60
37204;DHT22;23098;48.054;10.636;2023-04-15T08:22:59;10.10;99.00
37204;DHT22;23098;48.054;10.636;2023-04-15T08:25:25;10.10;98.40
37204;DHT22;23098;48.054;10.636;2023-04-15T08:27:54;10.30;97.60
37204;DHT22;23098;48.054;10.636;2023-04-15T08:30:20;10.40;97.50
37204;DHT22;23098;48.054;10.636;2023-04-15T08:32:45;10.30;97.50
37204;DHT22;23098;48.054;10.636;2023-04-15T08:35:12;10.30;97.60
37204;DHT22;23098;48.054;10.636;2023-04-15T08:37:37;10.10;97.50
37204;DHT22;23098;48.054;10.636;2023-04-15T08:40:03;10.10;97.50
37204;DHT22;23098;48.054;10.636;2023-04-15T08:42:31;9.90;97.20
37204;DHT22;23098;48.054;10.636;2023-04-15T08:45:03;9.70;98.00
37204;DHT22;23098;48.054;10.636;2023-04-15T08:47:30;9.60;98.50
37204;DHT22;23098;48.054;10.636;2023-04-15T08:49:57;9.60;98.80
37204;DHT22;23098;48.054;10.636;2023-04-15T08:52:27;9.60;98.10
37204;DHT22;23098;48.054;10.636;2023-04-15T08:54:57;9.60;98.40
37204;DHT22;23098;48.054;10.636;2023-04-15T08:57:25;9.50;98.20
37204;DHT22;23098;48.054;10.636;2023-04-15T08:59:54;9.30;99.00
37204;DHT22;23098;48.054;10.636;2023-04-15T09:02:20;9.60;98.60
37204;DHT22;23098;48.054;10.636;2023-04-15T09:04:46;9.80;98.30
37204;DHT22;23098;48.054;10.636;2023-04-15T09:07:12;10.00;97.90
37204;DHT22;23098;48.054;10.636;2023-04-15T09:09:38;10.20;97.50
37204;DHT22;23098;48.054;10.636;2023-04-15T09:12:07;10.20;97.50
37204;DHT22;23098;48.054;10.636;2023-04-15T09:14:36;10.10;97.70
37204;DHT22;23098;48.054;10.636;2023-04-15T09:17:04;9.80;97.90
37204;DHT22;23098;48.054;10.636;2023-04-15T09:19:30;10.00;98.40
37204;DHT22;23098;48.054;10.636;2023-04-15T09:21:56;10.10;98.10
37204;DHT22;23098;48.054;10.636;2023-04-15T09:24:23;10.30;99.20
37204;DHT22;23098;48.054;10.636;2023-04-15T09:26:53;10.60;97.90
37204;DHT22;23098;48.054;10.636;2023-04-15T09:29:19;10.70;97.10
37204;DHT22;23098;48.054;10.636;2023-04-15T09:31:45;10.90;97.40
37204;DHT22;23098;48.054;10.636;2023-04-15T09:34:11;10.90;96.80
37204;DHT22;23098;48.054;10.636;2023-04-15T09:36:54;10.50;97.30
37204;DHT22;23098;48.054;10.636;2023-04-15T09:39:21;10.70;97.70
37204;DHT22;23098;48.054;10.636;2023-04-15T09:42:09;10.70;97.30
37204;DHT22;23098;48.054;10.636;2023-04-15T09:44:34;10.40;96.90
37204;DHT22;23098;48.054;10.636;2023-04-15T09:47:00;10.60;96.90
37204;DHT22;23098;48.054;10.636;2023-04-15T09:49:26;10.80;97.60
37204;DHT22;23098;48.054;10.636;2023-04-15T09:51:57;10.60;97.10
37204;DHT22;23098;48.054;10.636;2023-04-15T09:54:22;10.80;97.50
37204;DHT22;23098;48.054;10.636;2023-04-15T09:56:49;10.70;97.50
37204;DHT22;23098;48.054;10.636;2023-04-15T09:59:15;10.60;97.20
37204;DHT22;23098;48.054;10.636;2023-04-15T10:01:41;10.90;98.10
37204;DHT22;23098;48.054;10.636;2023-04-15T10:04:08;11.20;97.00
37204;DHT22;23098;48.054;10.636;2023-04-15T10:06:34;11.30;96.10
37204;DHT22;23098;48.054;10.636;2023-04-15T10:09:00;11.50;96.40
37204;DHT22;23098;48.054;10.636;2023-04-15T10:11:29;11.20;96.90
37204;DHT22;23098;48.054;10.636;2023-04-15T10:13:56;10.90;96.60
37204;DHT22;23098;48.054;10.636;2023-04-15T10:16:25;10.90;96.20
37204;DHT22;23098;48.054;10.636;2023-04-15T10:18:54;11.00;96.70
37204;DHT22;23098;48.054;10.636;2023-04-15T10:23:52;11.10;96.30
37204;DHT22;23098;48.054;10.636;2023-04-15T10:26:18;11.30;96.80
37204;DHT22;23098;48.054;10.636;2023-04-15T10:28:44;11.20;96.10
37204;DHT22;23098;48.054;10.636;2023-04-15T10:31:12;11.20;97.50
37204;DHT22;23098;48.054;10.636;2023-04-15T10:33:41;11.70;97.40
37204;DHT22;23098;48.054;10.636;2023-04-15T10:36:08;11.90;95.80
37204;DHT22;23098;48.054;10.636;2023-04-15T10:38:37;11.70;95.60
37204;DHT22;23098;48.054;10.636;2023-04-15T10:41:17;12.10;96.40
37204;DHT22;23098;48.054;10.636;2023-04-15T10:43:54;12.10;94.80
37204;DHT22;23098;48.054;10.636;2023-04-15T10:46:43;12.20;95.50
37204;DHT22;23098;48.054;10.636;2023-04-15T10:49:11;12.50;94.40
37204;DHT22;23098;48.054;10.636;2023-04-15T10:51:38;12.10;94.70
37204;DHT22;23098;48.054;10.636;2023-04-15T10:57:07;12.50;95.70
37204;DHT22;23098;48.054;10.636;2023-04-15T11:05:06;11.90;95.00
37204;DHT22;23098;48.054;10.636;2023-04-15T11:12:38;12.70;94.10
37204;DHT22;23098;48.054;10.636;2023-04-15T11:17:52;13.20;93.40
37204;DHT22;23098;48.054;10.636;2023-04-15T11:20:17;13.40;92.10
37204;DHT22;23098;48.054;10.636;2023-04-15T11:22:52;13.80;92.50
37204;DHT22;23098;48.054;10.636;2023-04-15T11:25:38;12.90;92.20
37204;DHT22;23098;48.054;10.636;2023-04-15T11:28:04;12.60;92.90
37204;DHT22;23098;48.054;10.636;2023-04-15T11:30:32;12.20;93.40
37204;DHT22;23098;48.054;10.636;2023-04-15T11:33:02;11.70;94.00
37204;DHT22;23098;48.054;10.636;2023-04-15T11:35:28;11.20;95.60
37204;DHT22;23098;48.054;10.636;2023-04-15T11:37:54;10.60;95.20
37204;DHT22;23098;48.054;10.636;2023-04-15T11:40:27;10.00;96.80
37204;DHT22;23098;48.054;10.636;2023-04-15T11:43:09;9.40;98.30
37204;DHT22;23098;48.054;10.636;2023-04-15T11:45:36;9.20;99.90
37204;DHT22;23098;48.054;10.636;2023-04-15T11:48:09;8.90;99.90
37204;DHT22;23098;48.054;10.636;2023-04-15T11:50:35;8.40;99.90
37204;DHT22;23098;48.054;10.636;2023-04-15T11:53:03;8.30;99.90
37204;DHT22;23098;48.054;10.636;2023-04-15T11:55:29;8.20;99.90
37204;DHT22;23098;48.054;10.636;2023-04-15T11:58:15;8.10;99.90
37204;DHT22;23098;48.054;10.636;2023-04-15T12:03:24;8.30;99.90
37204;DHT22;23098;48.054;10.636;2023-04-15T12:06:15;8.30;99.90
37204;DHT22;23098;48.054;10.636;2023-04-15T12:11:50;8.20;99.90
37204;DHT22;23098;48.054;10.636;2023-04-15T12:14:27;8.20;99.90
37204;DHT22;23098;48.054;10.636;2023-04-15T12:16:55;8.30;99.90
37204;DHT22;23098;48.054;10.636;2023-04-15T12:19:36;8.70;99.90
37204;DHT22;23098;48.054;10.636;2023-04-15T12:22:04;8.80;99.90
37204;DHT22;23098;48.054;10.636;2023-04-15T12:24:32;8.90;99.90
37204;DHT22;23098;48.054;10.636;2023-04-15T12:27:01;9.30;99.90
37204;DHT22;23098;48.054;10.636;2023-04-15T12:29:29;9.60;99.90
37204;DHT22;23098;48.054;10.636;2023-04-15T12:32:14;9.80;99.90
37204;DHT22;23098;48.054;10.636;2023-04-15T12:34:43;10.00;99.90
37204;DHT22;23098;48.054;10.636;2023-04-15T12:37:10;10.10;99.90
37204;DHT22;23098;48.054;10.636;2023-04-15T12:39:38;10.50;99.90
37204;DHT22;23098;48.054;10.636;2023-04-15T12:42:05;10.40;99.90
37204;DHT22;23098;48.054;10.636;2023-04-15T12:44:31;10.50;99.90
37204;DHT22;23098;48.054;10.636;2023-04-15T12:46:58;10.80;99.90
37204;DHT22;23098;48.054;10.636;2023-04-15T12:49:26;10.80;99.90
37204;DHT22;23098;48.054;10.636;2023-04-15T12:51:53;10.70;99.90
37204;DHT22;23098;48.054;10.636;2023-04-15T12:54:19;10.60;99.90
37204;DHT22;23098;48.054;10.636;2023-04-15T12:56:46;10.50;99.80
37204;DHT22;23098;48.054;10.636;2023-04-15T12:59:13;10.30;99.70
37204;DHT22;23098;48.054;10.636;2023-04-15T13:01:38;10.20;99.90
37204;DHT22;23098;48.054;10.636;2023-04-15T13:04:05;10.00;99.90
37204;DHT22;23098;48.054;10.636;2023-04-15T13:06:30;9.70;99.90
37204;DHT22;23098;48.054;10.636;2023-04-15T13:09:08;9.50;99.90
37204;DHT22;23098;48.054;10.636;2023-04-15T13:11:33;9.20;99.90
37204;DHT22;23098;48.054;10.636;2023-04-15T13:14:00;9.10;99.90
37204;DHT22;23098;48.054;10.636;2023-04-15T13:16:26;9.00;99.90
37204;DHT22;23098;48.054;10.636;2023-04-15T13:18:52;9.10;99.90
37204;DHT22;23098;48.054;10.636;2023-04-15T13:21:18;9.00;99.90
37204;DHT22;23098;48.054;10.636;2023-04-15T13:23:44;8.80;99.90
37204;DHT22;23098;48.054;10.636;2023-04-15T13:26:10;8.60;99.90
37204;DHT22;23098;48.054;10.636;2023-04-15T13:28:35;8.40;99.90
37204;DHT22;23098;48.054;10.636;2023-04-15T13:31:01;8.20;99.90
37204;DHT22;23098;48.054;10.636;2023-04-15T13:33:27;8.10;99.90
37204;DHT22;23098;48.054;10.636;2023-04-15T13:35:53;8.10;99.90
37204;DHT22;23098;48.054;10.636;2023-04-15T13:38:18;8.00;99.90
37204;DHT22;23098;48.054;10.636;2023-04-15T13:40:44;7.90;99.90
37204;DHT22;23098;48.054;10.636;2023-04-15T13:43:09;7.80;99.90
37204;DHT22;23098;48.054;10.636;2023-04-15T13:45:35;7.80;99.90
37204;DHT22;23098;48.054;10.636;2023-04-15T13:48:01;7.80;99.90
37204;DHT22;23098;48.054;10.636;2023-04-15T13:50:27;7.90;99.90
37204;DHT22;23098;48.054;10.636;2023-04-15T13:52:53;7.90;99.90
37204;DHT22;23098;48.054;10.636;2023-04-15T13:55:18;7.90;99.90
37204;DHT22;23098;48.054;10.636;2023-04-15T13:57:44;7.90;99.90
37204;DHT22;23098;48.054;10.636;2023-04-15T14:00:10;7.90;99.90
37204;DHT22;23098;48.054;10.636;2023-04-15T14:02:36;7.90;99.90
37204;DHT22;23098;48.054;10.636;2023-04-15T14:05:03;7.90;99.90
37204;DHT22;23098;48.054;10.636;2023-04-15T14:07:29;7.90;99.90
37204;DHT22;23098;48.054;10.636;2023-04-15T14:09:55;8.00;99.90
37204;DHT22;23098;48.054;10.636;2023-04-15T14:12:21;8.00;99.90
37204;DHT22;23098;48.054;10.636;2023-04-15T14:14:46;8.20;99.90
37204;DHT22;23098;48.054;10.636;2023-04-15T14:17:12;8.20;99.90
37204;DHT22;23098;48.054;10.636;2023-04-15T14:19:38;8.30;99.90
37204;DHT22;23098;48.054;10.636;2023-04-15T14:22:03;8.30;99.90
37204;DHT22;23098;48.054;10.636;2023-04-15T14:24:29;8.30;99.90
37204;DHT22;23098;48.054;10.636;2023-04-15T14:26:55;8.40;99.90
37204;DHT22;23098;48.054;10.636;2023-04-15T14:29:21;8.40;99.90
37204;DHT22;23098;48.054;10.636;2023-04-15T14:31:47;8.50;99.90
37204;DHT22;23098;48.054;10.636;2023-04-15T14:34:14;8.40;99.90
37204;DHT22;23098;48.054;10.636;2023-04-15T14:36:50;8.50;99.90
37204;DHT22;23098;48.054;10.636;2023-04-15T14:39:16;8.60;99.90
37204;DHT22;23098;48.054;10.636;2023-04-15T14:41:42;8.50;99.90
37204;DHT22;23098;48.054;10.636;2023-04-15T14:44:07;8.50;99.90
37204;DHT22;23098;48.054;10.636;2023-04-15T14:46:36;8.50;99.90
37204;DHT22;23098;48.054;10.636;2023-04-15T14:49:01;8.50;99.90
37204;DHT22;23098;48.054;10.636;2023-04-15T14:51:27;8.50;99.90
37204;DHT22;23098;48.054;10.636;2023-04-15T14:53:53;8.50;99.90
37204;DHT22;23098;48.054;10.636;2023-04-15T14:56:18;8.50;99.90
37204;DHT22;23098;48.054;10.636;2023-04-15T14:58:44;8.50;99.90
37204;DHT22;23098;48.054;10.636;2023-04-15T15:01:09;8.50;99.90
37204;DHT22;23098;48.054;10.636;2023-04-15T15:03:35;8.60;99.90
37204;DHT22;23098;48.054;10.636;2023-04-15T15:06:00;8.60;99.90
37204;DHT22;23098;48.054;10.636;2023-04-15T15:08:26;8.60;99.90
37204;DHT22;23098;48.054;10.636;2023-04-15T15:10:51;8.60;99.90
37204;DHT22;23098;48.054;10.636;2023-04-15T15:13:18;8.50;99.90
37204;DHT22;23098;48.054;10.636;2023-04-15T15:15:44;8.40;99.90
37204;DHT22;23098;48.054;10.636;2023-04-15T15:18:10;8.30;99.90
37204;DHT22;23098;48.054;10.636;2023-04-15T15:20:35;8.10;99.90
37204;DHT22;23098;48.054;10.636;2023-04-15T15:23:04;7.80;99.90
37204;DHT22;23098;48.054;10.636;2023-04-15T15:25:29;7.60;99.90
37204;DHT22;23098;48.054;10.636;2023-04-15T15:27:56;7.50;99.90
37204;DHT22;23098;48.054;10.636;2023-04-15T15:30:22;7.40;99.90
37204;DHT22;23098;48.054;10.636;2023-04-15T15:32:47;7.30;99.90
37204;DHT22;23098;48.054;10.636;2023-04-15T15:35:13;7.20;99.90
37204;DHT22;23098;48.054;10.636;2023-04-15T15:37:40;7.20;99.90
37204;DHT22;23098;48.054;10.636;2023-04-15T15:40:07;7.10;99.90
37204;DHT22;23098;48.054;10.636;2023-04-15T15:42:34;7.00;99.90
37204;DHT22;23098;48.054;10.636;2023-04-15T15:45:02;6.90;99.90
37204;DHT22;23098;48.054;10.636;2023-04-15T15:47:27;6.90;99.90
37204;DHT22;23098;48.054;10.636;2023-04-15T15:49:53;6.80;99.90
37204;DHT22;23098;48.054;10.636;2023-04-15T15:52:19;6.90;99.90
37204;DHT22;23098;48.054;10.636;2023-04-15T15:54:45;6.90;99.90
37204;DHT22;23098;48.054;10.636;2023-04-15T15:57:10;6.90;99.90
37204;DHT22;23098;48.054;10.636;2023-04-15T15:59:36;6.90;99.90
37204;DHT22;23098;48.054;10.636;2023-04-15T16:02:09;6.80;99.90
37204;DHT22;23098;48.054;10.636;2023-04-15T16:04:35;6.70;99.90